sensor_id;sensor_type;location;lat;lon;timestamp;P1;durP1;ratioP1;P2;durP2;ratioP2
60478;SDS011;46321;48.398;11.754;2022-12-18T00:03:50;76.53;;;22.38;;
60478;SDS011;46321;48.398;11.754;2022-12-18T00:06:17;59.58;;;19.83;;
60478;SDS011;46321;48.398;11.754;2022-12-18T00:08:44;68.90;;;20.38;;
60478;SDS011;46321;48.398;11.754;2022-12-18T00:11:14;74.00;;;21.08;;
60478;SDS011;46321;48.398;11.754;2022-12-18T00:13:41;70.53;;;18.80;;
60478;SDS011;46321;48.398;11.754;2022-12-18T00:16:08;73.05;;;18.77;;
60478;SDS011;46321;48.398;11.754;2022-12-18T00:18:36;68.82;;;19.92;;
60478;SDS011;46321;48.398;11.754;2022-12-18T00:21:02;66.72;;;20.92;;
60478;SDS011;46321;48.398;11.754;2022-12-18T00:23:29;62.67;;;18.50;;
60478;SDS011;46321;48.398;11.754;2022-12-18T00:25:59;69.43;;;20.05;;
60478;SDS011;46321;48.398;11.754;2022-12-18T00:28:29;65.72;;;18.17;;
60478;SDS011;46321;48.398;11.754;2022-12-18T00:31:04;71.25;;;19.92;;
60478;SDS011;46321;48.398;11.754;2022-12-18T00:33:32;58.60;;;17.55;;
60478;SDS011;46321;48.398;11.754;2022-12-18T00:36:01;64.57;;;18.23;;
60478;SDS011;46321;48.398;11.754;2022-12-18T00:38:28;72.03;;;18.48;;
60478;SDS011;46321;48.398;11.754;2022-12-18T00:40:53;53.92;;;16.42;;
60478;SDS011;46321;48.398;11.754;2022-12-18T00:43:19;56.65;;;17.77;;
60478;SDS011;46321;48.398;11.754;2022-12-18T00:45:44;60.60;;;18.67;;
60478;SDS011;46321;48.398;11.754;2022-12-18T00:48:10;55.60;;;17.83;;
60478;SDS011;46321;48.398;11.754;2022-12-18T00:50:35;72.35;;;20.48;;
60478;SDS011;46321;48.398;11.754;2022-12-18T00:53:00;62.25;;;18.08;;
60478;SDS011;46321;48.398;11.754;2022-12-18T00:55:26;64.88;;;17.75;;
60478;SDS011;46321;48.398;11.754;2022-12-18T00:57:51;68.53;;;18.52;;
60478;SDS011;46321;48.398;11.754;2022-12-18T01:00:17;61.08;;;17.85;;
60478;SDS011;46321;48.398;11.754;2022-12-18T01:02:43;62.40;;;18.40;;
60478;SDS011;46321;48.398;11.754;2022-12-18T01:05:09;50.95;;;17.67;;
60478;SDS011;46321;48.398;11.754;2022-12-18T01:07:35;66.13;;;19.20;;
60478;SDS011;46321;48.398;11.754;2022-12-18T01:10:01;55.28;;;17.75;;
60478;SDS011;46321;48.398;11.754;2022-12-18T01:12:26;70.95;;;18.65;;
60478;SDS011;46321;48.398;11.754;2022-12-18T01:14:51;64.15;;;18.25;;
60478;SDS011;46321;48.398;11.754;2022-12-18T01:17:16;72.97;;;18.70;;
60478;SDS011;46321;48.398;11.754;2022-12-18T01:19:42;68.00;;;20.02;;
60478;SDS011;46321;48.398;11.754;2022-12-18T01:22:07;60.20;;;17.77;;
60478;SDS011;46321;48.398;11.754;2022-12-18T01:24:32;63.08;;;18.95;;
60478;SDS011;46321;48.398;11.754;2022-12-18T01:26:58;61.45;;;19.17;;
60478;SDS011;46321;48.398;11.754;2022-12-18T01:29:23;76.15;;;19.85;;
60478;SDS011;46321;48.398;11.754;2022-12-18T01:31:48;60.65;;;18.65;;
60478;SDS011;46321;48.398;11.754;2022-12-18T01:34:13;59.13;;;18.52;;
60478;SDS011;46321;48.398;11.754;2022-12-18T01:36:39;68.32;;;19.17;;
60478;SDS011;46321;48.398;11.754;2022-12-18T01:39:06;73.35;;;20.40;;
60478;SDS011;46321;48.398;11.754;2022-12-18T01:41:35;56.17;;;16.83;;
60478;SDS011;46321;48.398;11.754;2022-12-18T01:50:09;57.13;;;17.83;;
60478;SDS011;46321;48.398;11.754;2022-12-18T01:52:38;65.20;;;18.25;;
60478;SDS011;46321;48.398;11.754;2022-12-18T01:55:06;62.50;;;18.58;;
60478;SDS011;46321;48.398;11.754;2022-12-18T01:57:32;62.95;;;18.80;;
60478;SDS011;46321;48.398;11.754;2022-12-18T02:00:04;63.95;;;19.38;;
60478;SDS011;46321;48.398;11.754;2022-12-18T02:02:32;59.97;;;18.40;;
60478;SDS011;46321;48.398;11.754;2022-12-18T02:04:58;57.20;;;17.33;;
60478;SDS011;46321;48.398;11.754;2022-12-18T02:07:32;50.00;;;17.23;;
60478;SDS011;46321;48.398;11.754;2022-12-18T02:10:30;56.92;;;16.88;;
60478;SDS011;46321;48.398;11.754;2022-12-18T02:13:30;51.60;;;16.33;;
60478;SDS011;46321;48.398;11.754;2022-12-18T02:21:18;51.97;;;15.73;;
60478;SDS011;46321;48.398;11.754;2022-12-18T02:26:29;53.13;;;16.23;;
60478;SDS011;46321;48.398;11.754;2022-12-18T02:29:00;57.60;;;16.30;;
60478;SDS011;46321;48.398;11.754;2022-12-18T02:31:35;51.97;;;16.30;;
60478;SDS011;46321;48.398;11.754;2022-12-18T02:34:05;57.13;;;17.02;;
60478;SDS011;46321;48.398;11.754;2022-12-18T02:36:33;63.30;;;17.83;;
60478;SDS011;46321;48.398;11.754;2022-12-18T02:39:00;54.92;;;16.40;;
60478;SDS011;46321;48.398;11.754;2022-12-18T02:41:27;45.60;;;15.30;;
60478;SDS011;46321;48.398;11.754;2022-12-18T02:43:55;59.92;;;15.60;;
60478;SDS011;46321;48.398;11.754;2022-12-18T02:46:29;49.75;;;15.73;;
60478;SDS011;46321;48.398;11.754;2022-12-18T02:49:01;54.58;;;16.33;;
60478;SDS011;46321;48.398;11.754;2022-12-18T02:51:34;58.83;;;17.58;;
60478;SDS011;46321;48.398;11.754;2022-12-18T02:54:15;60.78;;;17.10;;
60478;SDS011;46321;48.398;11.754;2022-12-18T02:56:50;62.63;;;17.20;;
60478;SDS011;46321;48.398;11.754;2022-12-18T02:59:19;60.53;;;17.55;;
60478;SDS011;46321;48.398;11.754;2022-12-18T03:01:59;62.15;;;18.08;;
60478;SDS011;46321;48.398;11.754;2022-12-18T03:04:49;58.55;;;16.65;;
60478;SDS011;46321;48.398;11.754;2022-12-18T03:07:24;49.88;;;16.55;;
60478;SDS011;46321;48.398;11.754;2022-12-18T03:09:57;48.38;;;16.92;;
60478;SDS011;46321;48.398;11.754;2022-12-18T03:12:30;55.30;;;16.48;;
60478;SDS011;46321;48.398;11.754;2022-12-18T03:14:59;59.88;;;16.77;;
60478;SDS011;46321;48.398;11.754;2022-12-18T03:17:30;48.33;;;15.93;;
60478;SDS011;46321;48.398;11.754;2022-12-18T03:20:00;54.20;;;17.38;;
60478;SDS011;46321;48.398;11.754;2022-12-18T03:22:37;62.58;;;16.30;;
60478;SDS011;46321;48.398;11.754;2022-12-18T03:25:04;47.42;;;15.18;;
60478;SDS011;46321;48.398;11.754;2022-12-18T03:27:32;46.35;;;14.82;;
60478;SDS011;46321;48.398;11.754;2022-12-18T03:30:05;48.65;;;14.80;;
60478;SDS011;46321;48.398;11.754;2022-12-18T03:32:36;51.33;;;16.00;;
60478;SDS011;46321;48.398;11.754;2022-12-18T03:35:07;47.58;;;16.30;;
60478;SDS011;46321;48.398;11.754;2022-12-18T03:37:35;47.80;;;15.63;;
60478;SDS011;46321;48.398;11.754;2022-12-18T03:40:00;46.72;;;14.52;;
60478;SDS011;46321;48.398;11.754;2022-12-18T03:45:02;35.22;;;13.02;;
60478;SDS011;46321;48.398;11.754;2022-12-18T03:47:44;38.60;;;12.20;;
60478;SDS011;46321;48.398;11.754;2022-12-18T03:50:17;38.97;;;12.23;;
60478;SDS011;46321;48.398;11.754;2022-12-18T03:52:52;39.53;;;12.77;;
60478;SDS011;46321;48.398;11.754;2022-12-18T03:55:22;42.10;;;12.35;;
60478;SDS011;46321;48.398;11.754;2022-12-18T03:57:49;39.40;;;12.52;;
60478;SDS011;46321;48.398;11.754;2022-12-18T04:00:17;42.00;;;12.38;;
60478;SDS011;46321;48.398;11.754;2022-12-18T04:02:48;36.83;;;11.52;;
60478;SDS011;46321;48.398;11.754;2022-12-18T04:05:19;40.17;;;12.38;;
60478;SDS011;46321;48.398;11.754;2022-12-18T04:07:47;38.63;;;11.85;;
60478;SDS011;46321;48.398;11.754;2022-12-18T04:10:14;43.08;;;13.23;;
60478;SDS011;46321;48.398;11.754;2022-12-18T04:12:41;49.65;;;14.75;;
60478;SDS011;46321;48.398;11.754;2022-12-18T04:15:06;51.25;;;15.25;;
60478;SDS011;46321;48.398;11.754;2022-12-18T04:17:33;48.72;;;14.85;;
60478;SDS011;46321;48.398;11.754;2022-12-18T04:19:58;44.20;;;14.23;;
60478;SDS011;46321;48.398;11.754;2022-12-18T04:22:23;55.88;;;14.68;;
60478;SDS011;46321;48.398;11.754;2022-12-18T04:24:48;52.20;;;16.25;;
60478;SDS011;46321;48.398;11.754;2022-12-18T04:27:14;57.72;;;16.13;;
60478;SDS011;46321;48.398;11.754;2022-12-18T04:29:39;58.47;;;17.58;;
60478;SDS011;46321;48.398;11.754;2022-12-18T04:32:04;51.75;;;14.82;;
60478;SDS011;46321;48.398;11.754;2022-12-18T04:34:30;56.22;;;15.90;;
60478;SDS011;46321;48.398;11.754;2022-12-18T04:36:55;52.28;;;15.90;;
60478;SDS011;46321;48.398;11.754;2022-12-18T04:39:21;50.33;;;16.95;;
60478;SDS011;46321;48.398;11.754;2022-12-18T04:41:46;51.72;;;15.65;;
60478;SDS011;46321;48.398;11.754;2022-12-18T04:44:11;49.42;;;15.65;;
60478;SDS011;46321;48.398;11.754;2022-12-18T04:46:36;52.88;;;16.13;;
60478;SDS011;46321;48.398;11.754;2022-12-18T04:49:02;45.15;;;12.95;;
60478;SDS011;46321;48.398;11.754;2022-12-18T04:51:27;47.03;;;14.10;;
60478;SDS011;46321;48.398;11.754;2022-12-18T04:53:53;44.58;;;13.60;;
60478;SDS011;46321;48.398;11.754;2022-12-18T04:56:18;38.38;;;13.52;;
60478;SDS011;46321;48.398;11.754;2022-12-18T04:58:44;40.33;;;13.18;;
60478;SDS011;46321;48.398;11.754;2022-12-18T05:01:10;45.58;;;12.75;;
60478;SDS011;46321;48.398;11.754;2022-12-18T05:03:37;38.95;;;12.38;;
60478;SDS011;46321;48.398;11.754;2022-12-18T05:06:03;48.90;;;12.95;;
60478;SDS011;46321;48.398;11.754;2022-12-18T05:08:29;34.72;;;11.68;;
60478;SDS011;46321;48.398;11.754;2022-12-18T05:11:13;49.67;;;13.32;;
60478;SDS011;46321;48.398;11.754;2022-12-18T05:13:43;35.63;;;11.48;;
60478;SDS011;46321;48.398;11.754;2022-12-18T05:16:09;39.35;;;12.82;;
60478;SDS011;46321;48.398;11.754;2022-12-18T05:18:35;44.25;;;12.35;;
60478;SDS011;46321;48.398;11.754;2022-12-18T05:21:01;35.58;;;12.13;;
60478;SDS011;46321;48.398;11.754;2022-12-18T05:23:26;37.65;;;11.90;;
60478;SDS011;46321;48.398;11.754;2022-12-18T05:28:17;38.70;;;13.65;;
60478;SDS011;46321;48.398;11.754;2022-12-18T05:30:47;46.40;;;12.70;;
60478;SDS011;46321;48.398;11.754;2022-12-18T05:33:13;47.25;;;13.70;;
60478;SDS011;46321;48.398;11.754;2022-12-18T05:35:38;51.47;;;14.77;;
60478;SDS011;46321;48.398;11.754;2022-12-18T05:38:04;53.50;;;16.27;;
60478;SDS011;46321;48.398;11.754;2022-12-18T05:40:30;58.17;;;14.68;;
60478;SDS011;46321;48.398;11.754;2022-12-18T05:42:55;44.45;;;14.48;;
60478;SDS011;46321;48.398;11.754;2022-12-18T05:45:20;35.97;;;12.48;;
60478;SDS011;46321;48.398;11.754;2022-12-18T05:47:45;40.58;;;12.10;;
60478;SDS011;46321;48.398;11.754;2022-12-18T05:50:11;42.60;;;14.60;;
60478;SDS011;46321;48.398;11.754;2022-12-18T05:52:36;28.33;;;12.40;;
60478;SDS011;46321;48.398;11.754;2022-12-18T05:55:01;33.70;;;10.68;;
60478;SDS011;46321;48.398;11.754;2022-12-18T05:57:26;50.75;;;13.98;;
60478;SDS011;46321;48.398;11.754;2022-12-18T05:59:52;41.92;;;12.80;;
60478;SDS011;46321;48.398;11.754;2022-12-18T06:02:17;43.00;;;13.57;;
60478;SDS011;46321;48.398;11.754;2022-12-18T06:04:42;42.35;;;12.82;;
60478;SDS011;46321;48.398;11.754;2022-12-18T06:07:08;31.95;;;10.73;;
60478;SDS011;46321;48.398;11.754;2022-12-18T06:09:33;40.08;;;13.55;;
60478;SDS011;46321;48.398;11.754;2022-12-18T06:11:58;40.33;;;12.80;;
60478;SDS011;46321;48.398;11.754;2022-12-18T06:14:24;42.15;;;11.85;;
60478;SDS011;46321;48.398;11.754;2022-12-18T06:16:50;36.80;;;11.45;;
60478;SDS011;46321;48.398;11.754;2022-12-18T06:19:16;38.47;;;12.57;;
60478;SDS011;46321;48.398;11.754;2022-12-18T06:21:41;43.88;;;12.52;;
60478;SDS011;46321;48.398;11.754;2022-12-18T06:24:07;36.67;;;12.25;;
60478;SDS011;46321;48.398;11.754;2022-12-18T06:26:32;39.25;;;12.93;;
60478;SDS011;46321;48.398;11.754;2022-12-18T06:28:58;41.65;;;12.63;;
60478;SDS011;46321;48.398;11.754;2022-12-18T06:31:23;34.60;;;12.15;;
60478;SDS011;46321;48.398;11.754;2022-12-18T06:33:49;35.05;;;12.38;;
60478;SDS011;46321;48.398;11.754;2022-12-18T06:36:14;42.83;;;13.57;;
60478;SDS011;46321;48.398;11.754;2022-12-18T06:38:41;39.38;;;13.15;;
60478;SDS011;46321;48.398;11.754;2022-12-18T06:41:13;46.00;;;14.43;;
60478;SDS011;46321;48.398;11.754;2022-12-18T06:43:40;37.22;;;13.15;;
60478;SDS011;46321;48.398;11.754;2022-12-18T06:46:06;40.65;;;12.95;;
60478;SDS011;46321;48.398;11.754;2022-12-18T06:48:31;46.58;;;14.95;;
60478;SDS011;46321;48.398;11.754;2022-12-18T06:50:58;42.00;;;12.60;;
60478;SDS011;46321;48.398;11.754;2022-12-18T06:53:23;42.15;;;13.60;;
60478;SDS011;46321;48.398;11.754;2022-12-18T06:55:49;43.55;;;13.60;;
60478;SDS011;46321;48.398;11.754;2022-12-18T06:58:14;41.22;;;12.77;;
60478;SDS011;46321;48.398;11.754;2022-12-18T07:00:39;43.85;;;13.98;;
60478;SDS011;46321;48.398;11.754;2022-12-18T07:03:05;41.65;;;13.50;;
60478;SDS011;46321;48.398;11.754;2022-12-18T07:05:30;42.40;;;11.63;;
60478;SDS011;46321;48.398;11.754;2022-12-18T07:07:56;39.60;;;12.35;;
60478;SDS011;46321;48.398;11.754;2022-12-18T07:10:21;35.33;;;12.40;;
60478;SDS011;46321;48.398;11.754;2022-12-18T07:12:46;43.30;;;12.98;;
60478;SDS011;46321;48.398;11.754;2022-12-18T07:15:12;44.22;;;12.82;;
60478;SDS011;46321;48.398;11.754;2022-12-18T07:17:37;36.90;;;12.43;;
60478;SDS011;46321;48.398;11.754;2022-12-18T07:20:02;31.98;;;12.65;;
60478;SDS011;46321;48.398;11.754;2022-12-18T07:22:28;42.60;;;14.27;;
60478;SDS011;46321;48.398;11.754;2022-12-18T07:24:53;36.67;;;11.20;;
60478;SDS011;46321;48.398;11.754;2022-12-18T07:27:18;37.85;;;12.48;;
60478;SDS011;46321;48.398;11.754;2022-12-18T07:29:44;40.03;;;12.52;;
60478;SDS011;46321;48.398;11.754;2022-12-18T07:32:09;40.63;;;12.68;;
60478;SDS011;46321;48.398;11.754;2022-12-18T07:34:34;46.70;;;13.48;;
60478;SDS011;46321;48.398;11.754;2022-12-18T07:37:00;33.45;;;11.80;;
60478;SDS011;46321;48.398;11.754;2022-12-18T07:39:25;34.60;;;10.57;;
60478;SDS011;46321;48.398;11.754;2022-12-18T07:41:50;34.30;;;11.48;;
60478;SDS011;46321;48.398;11.754;2022-12-18T07:44:36;32.50;;;10.70;;
60478;SDS011;46321;48.398;11.754;2022-12-18T07:47:02;43.67;;;13.77;;
60478;SDS011;46321;48.398;11.754;2022-12-18T07:49:27;41.90;;;13.52;;
60478;SDS011;46321;48.398;11.754;2022-12-18T07:51:54;36.28;;;11.27;;
60478;SDS011;46321;48.398;11.754;2022-12-18T07:54:20;31.52;;;11.82;;
60478;SDS011;46321;48.398;11.754;2022-12-18T07:56:46;39.08;;;12.88;;
60478;SDS011;46321;48.398;11.754;2022-12-18T07:59:11;40.70;;;11.50;;
60478;SDS011;46321;48.398;11.754;2022-12-18T08:01:37;38.55;;;12.10;;
60478;SDS011;46321;48.398;11.754;2022-12-18T08:04:02;42.35;;;12.95;;
60478;SDS011;46321;48.398;11.754;2022-12-18T08:06:27;32.83;;;11.50;;
60478;SDS011;46321;48.398;11.754;2022-12-18T08:08:53;36.97;;;11.18;;
60478;SDS011;46321;48.398;11.754;2022-12-18T08:11:20;38.38;;;10.35;;
60478;SDS011;46321;48.398;11.754;2022-12-18T08:13:45;40.65;;;11.82;;
60478;SDS011;46321;48.398;11.754;2022-12-18T08:16:10;35.55;;;12.40;;
60478;SDS011;46321;48.398;11.754;2022-12-18T08:18:36;36.00;;;11.48;;
60478;SDS011;46321;48.398;11.754;2022-12-18T08:21:12;39.38;;;12.57;;
60478;SDS011;46321;48.398;11.754;2022-12-18T08:23:43;44.83;;;14.57;;
60478;SDS011;46321;48.398;11.754;2022-12-18T08:26:09;33.22;;;12.40;;
60478;SDS011;46321;48.398;11.754;2022-12-18T08:28:38;40.60;;;13.23;;
60478;SDS011;46321;48.398;11.754;2022-12-18T08:31:04;31.85;;;11.52;;
60478;SDS011;46321;48.398;11.754;2022-12-18T08:33:30;33.22;;;11.93;;
60478;SDS011;46321;48.398;11.754;2022-12-18T08:35:55;39.55;;;12.90;;
60478;SDS011;46321;48.398;11.754;2022-12-18T08:38:20;36.08;;;12.25;;
60478;SDS011;46321;48.398;11.754;2022-12-18T08:40:46;42.75;;;12.93;;
60478;SDS011;46321;48.398;11.754;2022-12-18T08:43:11;44.13;;;13.32;;
60478;SDS011;46321;48.398;11.754;2022-12-18T08:45:55;37.55;;;12.77;;
60478;SDS011;46321;48.398;11.754;2022-12-18T08:48:21;36.38;;;11.88;;
60478;SDS011;46321;48.398;11.754;2022-12-18T08:50:53;37.78;;;12.23;;
60478;SDS011;46321;48.398;11.754;2022-12-18T08:53:20;50.63;;;13.77;;
60478;SDS011;46321;48.398;11.754;2022-12-18T08:55:45;38.90;;;12.30;;
60478;SDS011;46321;48.398;11.754;2022-12-18T08:58:10;42.83;;;13.63;;
60478;SDS011;46321;48.398;11.754;2022-12-18T09:00:36;41.33;;;14.80;;
60478;SDS011;46321;48.398;11.754;2022-12-18T09:03:01;41.67;;;14.40;;
60478;SDS011;46321;48.398;11.754;2022-12-18T09:05:26;42.85;;;13.32;;
60478;SDS011;46321;48.398;11.754;2022-12-18T09:07:52;41.78;;;13.43;;
60478;SDS011;46321;48.398;11.754;2022-12-18T09:10:17;39.00;;;12.50;;
60478;SDS011;46321;48.398;11.754;2022-12-18T09:12:42;38.10;;;12.95;;
60478;SDS011;46321;48.398;11.754;2022-12-18T09:15:08;44.60;;;13.88;;
60478;SDS011;46321;48.398;11.754;2022-12-18T09:17:33;43.42;;;14.20;;
60478;SDS011;46321;48.398;11.754;2022-12-18T09:19:58;32.65;;;10.73;;
60478;SDS011;46321;48.398;11.754;2022-12-18T09:22:24;34.40;;;12.18;;
60478;SDS011;46321;48.398;11.754;2022-12-18T09:24:49;34.90;;;12.02;;
60478;SDS011;46321;48.398;11.754;2022-12-18T09:27:14;37.05;;;11.75;;
60478;SDS011;46321;48.398;11.754;2022-12-18T09:29:40;33.90;;;11.38;;
60478;SDS011;46321;48.398;11.754;2022-12-18T09:32:05;41.63;;;13.55;;
60478;SDS011;46321;48.398;11.754;2022-12-18T09:34:30;39.60;;;12.45;;
60478;SDS011;46321;48.398;11.754;2022-12-18T09:36:55;39.83;;;12.57;;
60478;SDS011;46321;48.398;11.754;2022-12-18T09:39:21;45.83;;;12.40;;
60478;SDS011;46321;48.398;11.754;2022-12-18T09:41:53;33.92;;;12.60;;
60478;SDS011;46321;48.398;11.754;2022-12-18T09:49:44;31.45;;;10.82;;
60478;SDS011;46321;48.398;11.754;2022-12-18T09:52:13;39.67;;;12.23;;
60478;SDS011;46321;48.398;11.754;2022-12-18T09:54:43;38.55;;;11.80;;
60478;SDS011;46321;48.398;11.754;2022-12-18T09:57:18;30.65;;;11.68;;
60478;SDS011;46321;48.398;11.754;2022-12-18T09:59:48;39.40;;;12.70;;
60478;SDS011;46321;48.398;11.754;2022-12-18T10:02:19;39.22;;;11.98;;
60478;SDS011;46321;48.398;11.754;2022-12-18T10:04:48;42.20;;;12.98;;
60478;SDS011;46321;48.398;11.754;2022-12-18T10:07:34;36.17;;;11.77;;
60478;SDS011;46321;48.398;11.754;2022-12-18T10:10:22;43.13;;;14.27;;
60478;SDS011;46321;48.398;11.754;2022-12-18T10:15:35;37.95;;;13.02;;
60478;SDS011;46321;48.398;11.754;2022-12-18T10:18:19;45.47;;;13.77;;
60478;SDS011;46321;48.398;11.754;2022-12-18T10:20:51;32.63;;;11.43;;
60478;SDS011;46321;48.398;11.754;2022-12-18T10:23:28;34.92;;;12.68;;
60478;SDS011;46321;48.398;11.754;2022-12-18T10:26:05;48.78;;;15.00;;
60478;SDS011;46321;48.398;11.754;2022-12-18T10:28:33;38.38;;;13.35;;
60478;SDS011;46321;48.398;11.754;2022-12-18T10:31:01;36.28;;;12.43;;
60478;SDS011;46321;48.398;11.754;2022-12-18T10:33:28;39.90;;;13.27;;
60478;SDS011;46321;48.398;11.754;2022-12-18T10:35:56;35.53;;;13.43;;
60478;SDS011;46321;48.398;11.754;2022-12-18T10:40:58;32.95;;;12.45;;
60478;SDS011;46321;48.398;11.754;2022-12-18T10:43:32;39.25;;;14.63;;
60478;SDS011;46321;48.398;11.754;2022-12-18T10:46:02;45.67;;;15.20;;
60478;SDS011;46321;48.398;11.754;2022-12-18T10:48:40;41.30;;;13.82;;
60478;SDS011;46321;48.398;11.754;2022-12-18T10:51:06;39.38;;;14.02;;
60478;SDS011;46321;48.398;11.754;2022-12-18T10:53:33;40.88;;;12.80;;
60478;SDS011;46321;48.398;11.754;2022-12-18T10:56:02;40.53;;;13.65;;
60478;SDS011;46321;48.398;11.754;2022-12-18T10:58:30;44.22;;;13.50;;
60478;SDS011;46321;48.398;11.754;2022-12-18T11:01:11;38.15;;;12.80;;
60478;SDS011;46321;48.398;11.754;2022-12-18T11:03:40;37.95;;;12.35;;
60478;SDS011;46321;48.398;11.754;2022-12-18T11:06:11;29.13;;;10.77;;
60478;SDS011;46321;48.398;11.754;2022-12-18T11:08:38;35.20;;;12.90;;
60478;SDS011;46321;48.398;11.754;2022-12-18T11:16:29;34.17;;;12.77;;
60478;SDS011;46321;48.398;11.754;2022-12-18T11:19:09;37.03;;;11.57;;
60478;SDS011;46321;48.398;11.754;2022-12-18T11:21:54;31.17;;;12.00;;
60478;SDS011;46321;48.398;11.754;2022-12-18T11:24:29;39.00;;;13.32;;
60478;SDS011;46321;48.398;11.754;2022-12-18T11:26:57;38.53;;;14.32;;
60478;SDS011;46321;48.398;11.754;2022-12-18T11:29:32;33.17;;;11.55;;
60478;SDS011;46321;48.398;11.754;2022-12-18T11:34:39;32.72;;;11.23;;
60478;SDS011;46321;48.398;11.754;2022-12-18T11:37:08;36.85;;;12.23;;
60478;SDS011;46321;48.398;11.754;2022-12-18T11:39:37;37.45;;;12.43;;
60478;SDS011;46321;48.398;11.754;2022-12-18T11:44:52;33.92;;;13.27;;
60478;SDS011;46321;48.398;11.754;2022-12-18T11:47:25;31.35;;;12.07;;
60478;SDS011;46321;48.398;11.754;2022-12-18T11:50:00;33.05;;;11.88;;
60478;SDS011;46321;48.398;11.754;2022-12-18T11:52:28;33.92;;;12.52;;
60478;SDS011;46321;48.398;11.754;2022-12-18T12:00:29;36.38;;;12.52;;
60478;SDS011;46321;48.398;11.754;2022-12-18T12:03:15;33.00;;;13.10;;
60478;SDS011;46321;48.398;11.754;2022-12-18T12:06:03;36.33;;;13.65;;
60478;SDS011;46321;48.398;11.754;2022-12-18T12:11:10;31.38;;;12.73;;
60478;SDS011;46321;48.398;11.754;2022-12-18T12:22:51;36.45;;;13.40;;
60478;SDS011;46321;48.398;11.754;2022-12-18T12:33:53;35.75;;;12.85;;
60478;SDS011;46321;48.398;11.754;2022-12-18T12:36:46;34.30;;;12.57;;
60478;SDS011;46321;48.398;11.754;2022-12-18T12:39:23;36.75;;;13.52;;
60478;SDS011;46321;48.398;11.754;2022-12-18T12:41:55;40.13;;;13.88;;
60478;SDS011;46321;48.398;11.754;2022-12-18T12:44:43;34.40;;;13.60;;
60478;SDS011;46321;48.398;11.754;2022-12-18T12:47:14;37.17;;;13.85;;
60478;SDS011;46321;48.398;11.754;2022-12-18T12:49:44;38.20;;;13.50;;
60478;SDS011;46321;48.398;11.754;2022-12-18T12:52:14;36.40;;;13.15;;
60478;SDS011;46321;48.398;11.754;2022-12-18T12:54:42;32.83;;;12.40;;
60478;SDS011;46321;48.398;11.754;2022-12-18T12:59:39;36.90;;;14.45;;
60478;SDS011;46321;48.398;11.754;2022-12-18T13:02:22;35.17;;;13.13;;
60478;SDS011;46321;48.398;11.754;2022-12-18T13:05:14;37.63;;;13.10;;
60478;SDS011;46321;48.398;11.754;2022-12-18T13:07:54;35.75;;;13.82;;
60478;SDS011;46321;48.398;11.754;2022-12-18T13:10:25;38.25;;;13.00;;
60478;SDS011;46321;48.398;11.754;2022-12-18T13:13:00;33.55;;;13.50;;
60478;SDS011;46321;48.398;11.754;2022-12-18T13:23:01;36.05;;;12.73;;
60478;SDS011;46321;48.398;11.754;2022-12-18T13:25:44;28.48;;;12.18;;
60478;SDS011;46321;48.398;11.754;2022-12-18T13:30:41;31.52;;;11.98;;
60478;SDS011;46321;48.398;11.754;2022-12-18T13:41:00;33.38;;;12.23;;
60478;SDS011;46321;48.398;11.754;2022-12-18T13:43:34;35.03;;;12.52;;
60478;SDS011;46321;48.398;11.754;2022-12-18T13:51:42;33.08;;;11.20;;
60478;SDS011;46321;48.398;11.754;2022-12-18T13:54:18;37.53;;;12.88;;
60478;SDS011;46321;48.398;11.754;2022-12-18T13:56:49;30.20;;;12.32;;
60478;SDS011;46321;48.398;11.754;2022-12-18T13:59:19;36.75;;;13.20;;
60478;SDS011;46321;48.398;11.754;2022-12-18T14:04:29;31.27;;;11.48;;
60478;SDS011;46321;48.398;11.754;2022-12-18T14:07:07;35.72;;;12.35;;
60478;SDS011;46321;48.398;11.754;2022-12-18T14:09:39;30.50;;;11.05;;
60478;SDS011;46321;48.398;11.754;2022-12-18T14:12:12;37.25;;;12.85;;
60478;SDS011;46321;48.398;11.754;2022-12-18T14:14:59;30.83;;;10.93;;
60478;SDS011;46321;48.398;11.754;2022-12-18T14:17:25;34.63;;;11.75;;
60478;SDS011;46321;48.398;11.754;2022-12-18T14:19:50;39.38;;;12.15;;
60478;SDS011;46321;48.398;11.754;2022-12-18T14:22:20;33.60;;;11.07;;
60478;SDS011;46321;48.398;11.754;2022-12-18T14:25:04;34.22;;;11.88;;
60478;SDS011;46321;48.398;11.754;2022-12-18T14:27:52;30.58;;;12.38;;
60478;SDS011;46321;48.398;11.754;2022-12-18T14:30:37;32.25;;;11.70;;
60478;SDS011;46321;48.398;11.754;2022-12-18T14:35:33;33.15;;;11.60;;
60478;SDS011;46321;48.398;11.754;2022-12-18T14:40:36;32.05;;;11.45;;
60478;SDS011;46321;48.398;11.754;2022-12-18T14:43:01;34.45;;;11.60;;
60478;SDS011;46321;48.398;11.754;2022-12-18T14:45:33;38.30;;;12.98;;
60478;SDS011;46321;48.398;11.754;2022-12-18T14:48:07;30.33;;;10.75;;
60478;SDS011;46321;48.398;11.754;2022-12-18T14:50:34;41.17;;;12.30;;
60478;SDS011;46321;48.398;11.754;2022-12-18T14:53:00;40.70;;;14.25;;
60478;SDS011;46321;48.398;11.754;2022-12-18T14:55:25;37.65;;;12.80;;
60478;SDS011;46321;48.398;11.754;2022-12-18T14:57:51;34.35;;;12.93;;
60478;SDS011;46321;48.398;11.754;2022-12-18T15:00:20;31.50;;;11.40;;
60478;SDS011;46321;48.398;11.754;2022-12-18T15:02:48;35.88;;;12.07;;
60478;SDS011;46321;48.398;11.754;2022-12-18T15:05:35;39.33;;;14.10;;
60478;SDS011;46321;48.398;11.754;2022-12-18T15:08:01;37.28;;;12.35;;
60478;SDS011;46321;48.398;11.754;2022-12-18T15:10:28;35.92;;;12.02;;
60478;SDS011;46321;48.398;11.754;2022-12-18T15:18:10;41.58;;;13.27;;
60478;SDS011;46321;48.398;11.754;2022-12-18T15:23:14;36.50;;;12.90;;
60478;SDS011;46321;48.398;11.754;2022-12-18T15:25:40;35.72;;;12.30;;
60478;SDS011;46321;48.398;11.754;2022-12-18T15:28:19;37.05;;;13.05;;
60478;SDS011;46321;48.398;11.754;2022-12-18T15:31:01;43.50;;;13.82;;
60478;SDS011;46321;48.398;11.754;2022-12-18T15:33:32;34.80;;;13.23;;
60478;SDS011;46321;48.398;11.754;2022-12-18T15:36:00;36.95;;;12.95;;
60478;SDS011;46321;48.398;11.754;2022-12-18T15:38:27;37.83;;;13.93;;
60478;SDS011;46321;48.398;11.754;2022-12-18T15:40:53;36.40;;;12.90;;
60478;SDS011;46321;48.398;11.754;2022-12-18T15:43:22;36.75;;;13.10;;
60478;SDS011;46321;48.398;11.754;2022-12-18T15:46:04;38.13;;;13.95;;
60478;SDS011;46321;48.398;11.754;2022-12-18T15:48:33;36.92;;;13.00;;
60478;SDS011;46321;48.398;11.754;2022-12-18T15:51:00;35.17;;;13.45;;
60478;SDS011;46321;48.398;11.754;2022-12-18T15:53:27;34.92;;;13.50;;
60478;SDS011;46321;48.398;11.754;2022-12-18T15:55:56;40.78;;;13.88;;
60478;SDS011;46321;48.398;11.754;2022-12-18T15:58:41;40.65;;;14.52;;
60478;SDS011;46321;48.398;11.754;2022-12-18T16:01:07;42.30;;;13.65;;
60478;SDS011;46321;48.398;11.754;2022-12-18T16:03:34;42.10;;;13.98;;
60478;SDS011;46321;48.398;11.754;2022-12-18T16:06:00;36.97;;;12.65;;
60478;SDS011;46321;48.398;11.754;2022-12-18T16:08:26;43.20;;;13.60;;
60478;SDS011;46321;48.398;11.754;2022-12-18T16:10:53;35.97;;;13.38;;